Time;durP1;ratioP1;P1;durP2;ratioP2;P2;SDS_P1;SDS_P2;PMS_P1;PMS_P2;Temp;Humidity;BMP_temperature;BMP_pressure;BME280_temperature;BME280_humidity;BME280_pressure;Samples;Min_cycle;Max_cycle;Signal;HPM_P1;HPM_P2
2022/05/02 00:00:38;;;;;;;4.97;4.57;;;;;;;8.28;82.50;95675.00;5019720;28;20044;-61
2022/05/02 00:03:04;;;;;;;4.75;4.45;;;;;;;8.20;83.24;95676.63;5019612;28;20101;-61
2022/05/02 00:05:30;;;;;;;6.55;5.03;;;;;;;8.19;82.31;95667.91;5020941;28;20116;-61
2022/05/02 00:07:55;;;;;;;5.15;4.68;;;;;;;8.12;83.41;95664.94;5022188;28;20619;-61
2022/05/02 00:10:21;;;;;;;5.00;4.57;;;;;;;8.08;84.61;95668.78;5018136;28;20132;-61
2022/05/02 00:12:47;;;;;;;8.27;4.82;;;;;;;8.07;83.10;95668.91;5024705;28;20030;-61
2022/05/02 00:15:12;;;;;;;4.80;4.40;;;;;;;8.09;83.23;95664.41;5025435;28;20064;-61
2022/05/02 00:17:56;;;;;;;6.38;4.90;;;;;;;8.14;83.11;95665.66;5028199;28;20025;-61
2022/05/02 00:20:25;;;;;;;6.38;4.97;;;;;;;8.10;83.54;95671.31;5024135;28;20095;-61
2022/05/02 00:22:51;;;;;;;5.00;4.60;;;;;;;8.01;83.63;95659.78;5022281;28;20104;-61
2022/05/02 00:25:17;;;;;;;5.05;4.65;;;;;;;8.01;84.46;95665.84;5023681;28;20120;-61
2022/05/02 00:27:43;;;;;;;5.25;4.85;;;;;;;7.97;84.05;95661.81;5026016;28;20540;-61
2022/05/02 00:30:10;;;;;;;5.20;4.75;;;;;;;7.95;85.35;95661.09;5023055;28;20069;-61
2022/05/02 00:32:36;;;;;;;5.18;4.75;;;;;;;7.88;84.96;95665.22;5022270;28;20099;-61
2022/05/02 00:35:03;;;;;;;5.40;4.93;;;;;;;7.90;84.52;95663.28;5023466;28;20037;-61
2022/05/02 00:37:29;;;;;;;4.82;4.43;;;;;;;7.89;85.78;95666.88;5021139;28;20026;-61
2022/05/02 00:39:54;;;;;;;5.20;4.85;;;;;;;7.89;85.08;95666.88;5026956;28;20029;-61
2022/05/02 00:42:20;;;;;;;5.22;4.82;;;;;;;7.84;86.00;95666.38;5023419;28;20032;-61
2022/05/02 00:44:46;;;;;;;4.93;4.53;;;;;;;7.73;86.45;95660.25;5026880;28;20029;-61
2022/05/02 00:47:15;;;;;;;5.57;5.15;;;;;;;7.68;86.59;95661.56;5020900;28;20044;-61
2022/05/02 00:49:41;;;;;;;5.35;4.95;;;;;;;7.62;86.37;95668.13;5023106;28;20040;-61
2022/05/02 00:52:06;;;;;;;5.28;4.88;;;;;;;7.60;85.75;95660.41;5022400;28;20038;-61
2022/05/02 00:54:33;;;;;;;4.53;4.22;;;;;;;7.60;85.66;95663.03;5022965;28;20116;-61
2022/05/02 00:56:59;;;;;;;6.05;4.93;;;;;;;7.59;86.52;95652.66;5021951;28;20040;-61
2022/05/02 00:59:27;;;;;;;6.25;4.82;;;;;;;7.52;86.87;95648.88;5024848;28;20472;-61
2022/05/02 01:01:52;;;;;;;5.00;4.60;;;;;;;7.47;87.35;95643.19;5022690;28;20480;-61
2022/05/02 01:04:18;;;;;;;5.38;4.85;;;;;;;7.43;86.78;95643.44;5019268;28;20041;-62
2022/05/02 01:09:28;;;;;;;5.70;4.78;;;;;;;7.39;86.17;95631.53;5024262;28;20060;-61
2022/05/02 01:11:55;;;;;;;5.47;4.95;;;;;;;7.40;87.89;95640.22;5022943;28;20500;-61
2022/05/02 01:14:20;;;;;;;5.25;4.65;;;;;;;7.35;86.66;95639.78;5023839;28;20048;-61
2022/05/02 01:16:46;;;;;;;5.60;4.50;;;;;;;7.33;86.47;95641.69;5023973;28;20033;-61
2022/05/02 01:19:11;;;;;;;5.50;5.10;;;;;;;7.32;87.97;95640.84;5022876;28;20033;-61
2022/05/02 01:21:38;;;;;;;9.73;5.57;;;;;;;7.28;87.99;95628.97;5022515;28;20405;-61
2022/05/02 01:24:04;;;;;;;5.88;5.38;;;;;;;7.34;87.11;95627.66;5020719;28;20034;-61
2022/05/02 01:26:30;;;;;;;4.80;4.50;;;;;;;7.29;87.23;95633.25;5022450;28;20476;-61
2022/05/02 01:28:57;;;;;;;5.55;4.90;;;;;;;7.33;86.85;95636.47;5023562;28;20360;-61
2022/05/02 01:31:23;;;;;;;6.32;5.28;;;;;;;7.27;87.34;95629.91;5023215;28;20041;-61
2022/05/02 01:33:50;;;;;;;5.07;4.78;;;;;;;7.26;87.63;95625.63;5025555;28;20034;-61
2022/05/02 01:36:16;;;;;;;4.60;4.30;;;;;;;7.28;87.41;95626.34;5023449;28;20066;-61
2022/05/02 01:38:42;;;;;;;5.15;4.75;;;;;;;7.25;87.78;95623.97;5023883;28;20520;-61
2022/05/02 01:41:09;;;;;;;5.97;5.45;;;;;;;7.25;87.11;95619.56;5025898;28;20523;-61
2022/05/02 01:43:35;;;;;;;5.72;5.22;;;;;;;7.26;87.70;95630.88;5024355;28;20393;-61
2022/05/02 01:46:01;;;;;;;5.20;4.88;;;;;;;7.25;86.65;95629.22;5023641;28;20025;-60
2022/05/02 01:48:28;;;;;;;5.70;5.03;;;;;;;7.19;87.70;95630.53;5023597;28;20045;-61
2022/05/02 01:50:54;;;;;;;4.90;4.50;;;;;;;7.17;87.53;95625.41;5016990;28;20025;-61
2022/05/02 01:53:20;;;;;;;5.53;5.03;;;;;;;7.16;87.34;95630.78;5020188;28;20109;-61
2022/05/02 01:55:45;;;;;;;5.30;4.80;;;;;;;7.15;88.32;95635.16;5023505;28;20040;-61
2022/05/02 01:58:11;;;;;;;4.70;4.40;;;;;;;7.12;87.72;95634.59;5022397;28;20535;-61
2022/05/02 02:00:36;;;;;;;5.00;4.60;;;;;;;7.10;88.03;95631.28;5020821;28;20033;-61
2022/05/02 02:03:02;;;;;;;5.15;4.65;;;;;;;7.04;89.08;95629.97;5023152;28;20033;-61
2022/05/02 02:08:12;;;;;;;5.68;5.18;;;;;;;7.04;89.81;95632.59;5018543;28;20055;-61
2022/05/02 02:10:38;;;;;;;5.55;5.05;;;;;;;6.96;89.24;95634.94;5024994;28;20029;-61
2022/05/02 02:13:04;;;;;;;5.30;4.88;;;;;;;6.92;89.42;95637.00;5025369;28;20021;-61
2022/05/02 02:15:29;;;;;;;5.55;5.05;;;;;;;6.88;89.88;95636.41;5022438;28;20028;-61
2022/05/02 02:17:55;;;;;;;5.68;5.03;;;;;;;6.84;89.30;95636.75;5021085;28;20029;-61
2022/05/02 02:20:20;;;;;;;5.40;4.90;;;;;;;6.80;89.02;95630.94;5020830;28;20026;-61
2022/05/02 02:22:45;;;;;;;5.95;5.45;;;;;;;6.76;89.62;95629.53;5020487;28;20096;-61
2022/05/02 02:25:11;;;;;;;5.65;5.20;;;;;;;6.77;89.36;95633.81;5023514;28;20048;-61
2022/05/02 02:27:36;;;;;;;5.47;4.55;;;;;;;6.76;89.06;95633.91;5023437;28;20033;-61
2022/05/02 02:30:03;;;;;;;5.18;4.82;;;;;;;6.74;88.73;95631.41;5024980;28;20601;-61
2022/05/02 02:32:28;;;;;;;5.38;4.88;;;;;;;6.79;88.12;95633.66;5019253;28;20037;-61
2022/05/02 02:34:53;;;;;;;10.70;5.32;;;;;;;6.76;89.03;95628.69;5020229;28;20115;-61
2022/05/02 02:37:19;;;;;;;5.18;4.80;;;;;;;6.64;89.23;95626.09;5019854;28;20460;-61
2022/05/02 02:39:45;;;;;;;5.63;5.22;;;;;;;6.63;89.13;95624.41;5022094;28;20013;-61
2022/05/02 02:42:11;;;;;;;5.80;4.70;;;;;;;6.63;88.64;95631.41;5022787;28;20034;-61
2022/05/02 02:44:36;;;;;;;5.70;5.25;;;;;;;6.61;88.64;95630.72;5023855;28;20035;-61
2022/05/02 02:47:02;;;;;;;5.95;5.40;;;;;;;6.59;89.00;95628.19;5020971;28;20412;-61
2022/05/02 02:49:28;;;;;;;5.30;4.93;;;;;;;6.55;89.82;95624.16;5020030;28;20054;-61
2022/05/02 02:51:53;;;;;;;5.28;4.97;;;;;;;6.59;88.76;95623.81;5018205;28;20026;-61
2022/05/02 02:54:18;;;;;;;4.85;4.45;;;;;;;6.65;88.22;95624.28;5018279;28;20068;-61
2022/05/02 02:56:44;;;;;;;5.32;4.82;;;;;;;6.71;88.09;95623.78;5021880;28;20028;-61
2022/05/02 02:59:10;;;;;;;5.70;4.85;;;;;;;6.65;88.77;95619.91;5023105;28;20060;-61
2022/05/02 03:01:36;;;;;;;5.78;5.38;;;;;;;6.55;89.42;95618.94;5019174;28;20108;-61
2022/05/02 03:06:01;;;;;;;5.07;4.72;;;;;;;6.48;89.33;95617.75;5020620;28;20037;-61
2022/05/02 03:06:47;;;;;;;4.72;4.40;;;;;;;6.48;89.07;95610.72;5019711;28;20120;-61
2022/05/02 03:09:12;;;;;;;9.55;5.28;;;;;;;6.51;89.05;95607.84;5020717;28;20036;-61
2022/05/02 03:11:38;;;;;;;5.47;5.05;;;;;;;6.56;88.14;95608.34;5024538;28;20112;-61
2022/05/02 03:14:03;;;;;;;5.47;5.00;;;;;;;6.52;90.17;95608.72;5019043;28;20042;-61
2022/05/02 03:16:28;;;;;;;6.68;6.00;;;;;;;6.45;90.09;95614.41;5021165;28;20029;-61
2022/05/02 03:18:54;;;;;;;5.93;5.43;;;;;;;6.42;89.69;95606.81;5018129;28;20018;-61
2022/05/02 03:21:19;;;;;;;5.47;5.00;;;;;;;6.38;89.93;95610.59;5027342;28;20033;-61
2022/05/02 03:23:44;;;;;;;5.18;4.88;;;;;;;6.38;90.62;95607.97;5021476;28;20464;-61
2022/05/02 03:26:10;;;;;;;5.45;5.05;;;;;;;6.34;90.93;95613.59;5018914;28;20056;-61
2022/05/02 03:28:35;;;;;;;5.88;5.20;;;;;;;6.29;91.69;95603.47;5021512;28;20022;-61
2022/05/02 03:31:00;;;;;;;6.15;4.82;;;;;;;6.26;92.13;95599.28;5020309;28;20563;-61
2022/05/02 03:33:26;;;;;;;6.10;5.47;;;;;;;6.22;91.35;95612.75;5022064;28;20030;-61
2022/05/02 03:35:51;;;;;;;6.65;5.95;;;;;;;6.18;91.29;95606.06;5020506;28;20121;-61
2022/05/02 03:38:16;;;;;;;5.82;5.32;;;;;;;6.21;91.00;95604.06;5018806;28;20060;-61
2022/05/02 03:40:42;;;;;;;6.78;6.18;;;;;;;6.22;91.16;95604.91;5021930;28;20026;-62
2022/05/02 03:43:07;;;;;;;5.72;5.32;;;;;;;6.23;90.83;95611.78;5019246;28;20053;-62
2022/05/02 03:45:33;;;;;;;5.90;5.40;;;;;;;6.23;90.64;95602.16;5026144;28;20030;-61
2022/05/02 03:47:59;;;;;;;5.45;5.05;;;;;;;6.26;90.43;95606.31;5022401;28;20021;-61
2022/05/02 03:50:24;;;;;;;5.50;5.10;;;;;;;6.26;90.13;95607.13;5029750;28;20537;-61
2022/05/02 03:52:50;;;;;;;8.15;5.45;;;;;;;6.24;91.11;95606.44;5022392;28;20355;-61
2022/05/02 03:55:15;;;;;;;7.90;5.53;;;;;;;6.24;90.31;95606.44;5024724;28;20038;-61
2022/05/02 03:57:41;;;;;;;6.20;5.20;;;;;;;6.19;91.16;95611.19;5030149;28;20422;-61
2022/05/02 04:00:07;;;;;;;6.45;5.85;;;;;;;6.13;91.33;95611.66;5024996;28;20068;-61
2022/05/02 04:02:33;;;;;;;6.18;5.68;;;;;;;6.12;90.96;95610.00;5022107;28;20129;-61
2022/05/02 04:04:58;;;;;;;5.82;5.32;;;;;;;6.08;92.80;95609.38;5027515;28;20484;-61
2022/05/02 04:07:24;;;;;;;5.90;5.40;;;;;;;6.02;92.24;95617.69;5028634;28;20060;-61
2022/05/02 04:09:50;;;;;;;6.40;5.43;;;;;;;5.97;93.04;95611.97;5020094;28;20021;-61
2022/05/02 04:12:15;;;;;;;5.45;5.05;;;;;;;5.98;91.96;95605.78;5026488;28;20105;-61
2022/05/02 04:14:40;;;;;;;5.85;5.35;;;;;;;5.99;91.03;95605.66;5024611;28;20040;-61
2022/05/02 04:17:06;;;;;;;9.75;5.63;;;;;;;5.95;91.17;95606.84;5028298;28;20191;-61
2022/05/02 04:19:31;;;;;;;5.55;4.78;;;;;;;5.96;91.40;95611.09;5022974;28;20030;-61
2022/05/02 04:21:56;;;;;;;7.88;5.18;;;;;;;5.94;93.21;95606.94;5024786;28;20044;-61
2022/05/02 04:24:22;;;;;;;5.68;5.28;;;;;;;5.91;92.06;95602.78;5017780;28;20074;-61
2022/05/02 04:26:47;;;;;;;5.90;5.43;;;;;;;5.92;91.03;95607.06;5026333;28;20032;-61
2022/05/02 04:29:12;;;;;;;6.18;5.68;;;;;;;5.93;91.34;95602.66;5028459;28;20030;-61
2022/05/02 04:31:38;;;;;;;5.80;5.20;;;;;;;5.88;91.98;95597.78;5022912;28;20471;-61
2022/05/02 04:34:03;;;;;;;6.60;6.10;;;;;;;5.88;92.83;95595.19;5019224;28;20034;-61
2022/05/02 04:36:29;;;;;;;12.25;5.70;;;;;;;5.80;91.93;95595.75;5029140;28;20026;-61
2022/05/02 04:38:54;;;;;;;6.43;5.93;;;;;;;5.77;92.26;95595.13;5029095;28;20064;-61
2022/05/02 04:41:19;;;;;;;7.18;5.70;;;;;;;5.79;92.45;95601.09;5025288;28;20175;-59
2022/05/02 04:43:45;;;;;;;5.78;5.38;;;;;;;5.86;91.35;95603.13;5025395;28;20642;-60
2022/05/02 04:46:10;;;;;;;6.60;5.95;;;;;;;5.88;91.20;95600.41;5022677;28;20033;-61
2022/05/02 04:48:35;;;;;;;8.63;5.72;;;;;;;5.84;91.35;95599.78;5019638;28;20112;-61
2022/05/02 04:51:01;;;;;;;12.32;6.47;;;;;;;5.84;92.66;95589.34;5031201;28;20067;-61
2022/05/02 04:53:26;;;;;;;5.45;5.05;;;;;;;5.91;91.91;95592.34;5026531;28;20064;-60
2022/05/02 04:55:52;;;;;;;6.28;5.70;;;;;;;5.95;92.83;95599.00;5023173;28;20036;-61
2022/05/02 04:58:17;;;;;;;6.18;5.68;;;;;;;5.97;92.33;95597.09;5022592;28;20048;-61
2022/05/02 05:00:43;;;;;;;5.93;5.50;;;;;;;5.97;94.37;95591.88;5019701;28;20523;-61
2022/05/02 05:03:08;;;;;;;6.18;5.68;;;;;;;6.01;92.79;95590.72;5020712;28;20033;-61
2022/05/02 05:05:34;;;;;;;6.63;5.93;;;;;;;6.04;92.56;95591.41;5025240;28;20036;-61
2022/05/02 05:07:59;;;;;;;9.05;5.90;;;;;;;6.05;92.49;95591.31;5029882;28;20196;-61
2022/05/02 05:10:25;;;;;;;6.20;5.70;;;;;;;6.05;93.32;95593.94;5023874;28;20026;-61
2022/05/02 05:13:07;;;;;;;6.45;5.85;;;;;;;6.06;92.61;95595.59;5024580;28;20038;-61
2022/05/02 05:18:31;;;;;;;8.57;5.40;;;;;;;6.14;91.72;95597.63;5023080;28;20239;-61
2022/05/02 05:21:22;;;;;;;9.05;5.57;;;;;;;6.18;91.84;95604.28;5025999;28;20029;-61
2022/05/02 05:24:15;;;;;;;10.20;5.47;;;;;;;6.22;92.06;95592.63;5020052;28;20060;-61
2022/05/02 05:26:54;;;;;;;7.95;6.65;;;;;;;6.24;92.75;95600.38;5026304;28;20055;-61
2022/05/02 05:30:03;;;;;;;6.10;5.57;;;;;;;6.28;92.04;95592.16;5028220;28;20075;-60
2022/05/02 05:32:47;;;;;;;6.47;5.97;;;;;;;6.32;91.70;95590.16;4966987;28;20633;-60
2022/05/02 05:35:46;;;;;;;6.50;5.90;;;;;;;6.37;92.16;95593.25;5023023;28;20504;-60
2022/05/02 05:38:37;;;;;;;6.75;6.05;;;;;;;6.45;92.63;95596.13;5002915;28;20044;-61
2022/05/02 05:41:11;;;;;;;6.45;6.00;;;;;;;6.57;91.38;95599.56;4997973;28;20045;-60
2022/05/02 05:44:05;;;;;;;6.25;5.65;;;;;;;6.80;91.13;95594.31;5027457;28;20099;-61
2022/05/02 05:46:39;;;;;;;6.45;5.53;;;;;;;7.09;89.75;95591.16;5020555;28;20436;-60
2022/05/02 05:49:23;;;;;;;6.05;5.45;;;;;;;7.40;88.63;95591.28;5024693;28;20045;-60
2022/05/02 05:52:03;;;;;;;6.25;5.72;;;;;;;7.67;87.13;95586.53;5027334;28;20621;-61
2022/05/02 05:54:40;;;;;;;8.63;5.95;;;;;;;7.87;86.93;95588.34;5025512;28;20033;-59
2022/05/02 05:57:24;;;;;;;6.60;5.95;;;;;;;8.04;86.12;95588.72;5019613;28;20036;-60
2022/05/02 06:00:02;;;;;;;6.38;5.88;;;;;;;8.17;85.24;95589.34;5025822;28;20500;-60
2022/05/02 06:02:42;;;;;;;7.10;5.57;;;;;;;8.42;83.59;95589.06;5022893;28;20053;-59
2022/05/02 06:05:08;;;;;;;9.05;6.13;;;;;;;8.66;82.88;95590.56;5022592;28;20452;-59
2022/05/02 06:07:35;;;;;;;5.47;4.97;;;;;;;8.96;81.53;95591.50;5018462;28;20038;-59
2022/05/02 06:10:02;;;;;;;7.25;4.53;;;;;;;9.16;80.13;95593.19;5022072;28;20030;-59
2022/05/02 06:12:30;;;;;;;6.60;4.95;;;;;;;9.33;79.41;95593.50;5022186;28;20025;-59
2022/05/02 06:20:31;;;;;;;5.22;4.63;;;;;;;10.53;74.47;95594.09;5024688;28;20031;-59
2022/05/02 06:22:59;;;;;;;5.03;4.63;;;;;;;10.77;72.81;95584.00;5024174;28;20120;-60
2022/05/02 06:25:28;;;;;;;4.10;3.80;;;;;;;10.92;69.75;95586.97;5020062;28;20052;-60
2022/05/02 06:27:57;;;;;;;4.40;4.10;;;;;;;11.17;71.62;95585.47;5025549;28;20671;-60
2022/05/02 06:30:23;;;;;;;4.47;3.83;;;;;;;11.49;70.02;95585.94;5027782;28;20029;-60
2022/05/02 06:32:51;;;;;;;3.60;3.40;;;;;;;11.58;68.24;95591.16;5023585;28;20026;-60
2022/05/02 06:35:17;;;;;;;4.50;4.20;;;;;;;11.89;69.76;95587.28;5021293;28;20048;-60
2022/05/02 06:38:36;;;;;;;4.18;3.88;;;;;;;12.35;67.10;95591.59;5025459;28;20037;-60
2022/05/02 06:41:10;;;;;;;4.72;4.30;;;;;;;12.78;64.80;95595.13;5006996;28;20033;-60
2022/05/02 06:44:01;;;;;;;4.47;3.90;;;;;;;13.12;64.26;95586.34;5022395;28;20039;-60
2022/05/02 06:46:37;;;;;;;3.60;3.40;;;;;;;13.32;63.02;95580.78;5021555;28;20221;-61
2022/05/02 06:49:08;;;;;;;3.60;3.40;;;;;;;13.52;60.81;95591.09;5021256;28;20463;-61
2022/05/02 06:51:39;;;;;;;3.90;3.50;;;;;;;13.83;60.71;95585.19;5022139;28;20021;-60
2022/05/02 06:54:29;;;;;;;3.65;3.35;;;;;;;14.45;58.56;95584.63;5018262;28;20111;-60
2022/05/02 06:57:24;;;;;;;3.60;3.30;;;;;;;14.89;59.43;95588.66;5020984;28;20493;-60
2022/05/02 06:59:56;;;;;;;3.20;3.00;;;;;;;15.08;55.92;95594.56;5013660;28;20130;-61
2022/05/02 07:02:28;;;;;;;4.57;3.05;;;;;;;15.35;54.54;95587.13;5026616;28;20099;-61
2022/05/02 07:04:55;;;;;;;5.88;3.40;;;;;;;15.87;53.64;95590.94;5023129;28;20412;-60
2022/05/02 07:07:39;;;;;;;3.35;3.15;;;;;;;16.18;54.34;95586.59;5024574;28;20037;-60
2022/05/02 07:10:08;;;;;;;3.20;3.00;;;;;;;16.43;52.16;95596.97;5017242;28;20560;-60
2022/05/02 07:13:13;;;;;;;2.90;2.70;;;;;;;16.45;50.49;95593.16;5025532;28;20030;-61
2022/05/02 07:15:52;;;;;;;3.05;2.70;;;;;;;16.57;49.58;95590.03;5003211;28;20144;-60
2022/05/02 07:18:39;;;;;;;3.25;3.00;;;;;;;17.23;49.09;95593.81;5022575;28;20100;-60
2022/05/02 07:21:38;;;;;;;3.42;3.22;;;;;;;17.07;50.33;95589.53;5021586;28;20029;-60
2022/05/02 07:24:42;;;;;;;4.88;2.80;;;;;;;17.51;47.55;95588.63;5018155;28;20076;-61
2022/05/02 07:27:45;;;;;;;3.35;3.15;;;;;;;17.58;47.11;95586.84;5021104;28;20069;-60
2022/05/02 07:30:12;;;;;;;5.90;3.40;;;;;;;17.42;48.33;95587.91;5023052;28;20108;-61
2022/05/02 07:32:37;;;;;;;3.47;3.20;;;;;;;17.52;47.55;95582.28;5024979;28;20037;-60
2022/05/02 07:35:03;;;;;;;3.83;2.70;;;;;;;17.37;47.44;95587.63;5019345;28;20038;-61
2022/05/02 07:37:31;;;;;;;4.60;3.22;;;;;;;17.53;47.20;95583.94;5016372;28;20034;-61
2022/05/02 07:39:57;;;;;;;3.25;3.05;;;;;;;17.56;46.65;95585.38;5019670;28;20056;-60
2022/05/02 07:42:25;;;;;;;3.78;3.40;;;;;;;17.38;46.35;95586.63;5020545;28;20512;-60
2022/05/02 07:44:55;;;;;;;8.50;3.25;;;;;;;17.60;45.76;95582.16;5019360;28;20550;-61
2022/05/02 07:47:21;;;;;;;3.35;3.08;;;;;;;18.31;45.10;95577.06;5020134;28;20496;-61
2022/05/02 07:49:48;;;;;;;5.43;3.05;;;;;;;18.06;43.85;95582.00;5016528;28;20963;-60
2022/05/02 07:52:21;;;;;;;2.92;2.72;;;;;;;18.16;45.57;95577.16;5013011;28;20100;-61
2022/05/02 07:54:49;;;;;;;5.22;3.13;;;;;;;17.21;45.75;95580.69;5013811;28;20530;-61
2022/05/02 07:57:15;;;;;;;5.95;2.97;;;;;;;17.43;46.62;95581.56;5017280;28;20037;-61
2022/05/02 07:59:42;;;;;;;2.72;2.53;;;;;;;16.89;44.11;95583.53;5015428;28;20050;-61
2022/05/02 08:02:09;;;;;;;2.95;2.75;;;;;;;17.21;45.52;95578.03;5020397;28;20037;-61
2022/05/02 08:04:37;;;;;;;2.53;2.42;;;;;;;17.67;44.63;95576.91;5024028;28;20041;-61
2022/05/02 08:07:21;;;;;;;3.70;2.80;;;;;;;17.95;42.58;95572.66;5022039;28;20033;-61
2022/05/02 08:10:35;;;;;;;2.67;2.50;;;;;;;18.71;41.16;95568.53;5018057;28;20048;-61
2022/05/02 08:13:19;;;;;;;3.05;2.78;;;;;;;18.78;40.06;95569.38;4990727;28;20033;-60
2022/05/02 08:16:02;;;;;;;2.47;2.28;;;;;;;18.47;40.25;95573.31;5013879;28;20195;-61
2022/05/02 08:18:46;;;;;;;2.97;2.75;;;;;;;18.29;41.86;95565.78;5022173;28;20152;-61
2022/05/02 08:21:16;;;;;;;3.20;3.00;;;;;;;18.35;41.58;95567.69;5023674;28;20026;-61
2022/05/02 08:27:16;;;;;;;2.80;2.60;;;;;;;19.43;39.32;95560.25;5017231;28;20059;-60
2022/05/02 08:30:06;;;;;;;2.50;2.40;;;;;;;19.09;39.92;95551.31;5023214;28;20116;-61
2022/05/02 08:32:43;;;;;;;2.70;2.50;;;;;;;18.64;41.02;95555.16;5019264;28;20409;-61
2022/05/02 08:35:51;;;;;;;3.15;2.85;;;;;;;18.81;40.98;95554.84;5026126;28;20208;-60
2022/05/02 08:38:29;;;;;;;5.25;2.88;;;;;;;18.99;41.62;95539.16;5003359;28;20038;-60
2022/05/02 08:41:10;;;;;;;2.95;2.78;;;;;;;18.99;40.91;95546.34;5030662;28;20492;-60
2022/05/02 08:44:00;;;;;;;6.03;3.30;;;;;;;19.06;40.83;95541.03;5024612;28;20025;-60
2022/05/02 08:46:44;;;;;;;2.42;2.22;;;;;;;19.44;40.91;95540.53;5017070;28;20033;-60
2022/05/02 08:49:35;;;;;;;3.33;3.10;;;;;;;19.67;40.68;95544.69;5021072;28;20033;-60
2022/05/02 08:52:09;;;;;;;2.90;2.55;;;;;;;19.21;41.85;95540.88;5020191;28;20096;-60
2022/05/02 08:55:00;;;;;;;3.42;2.55;;;;;;;19.15;42.00;95538.00;5021038;28;20033;-61
2022/05/02 08:57:40;;;;;;;5.60;3.17;;;;;;;19.51;39.66;95532.53;5019429;28;20057;-60
2022/05/02 09:00:11;;;;;;;3.33;2.97;;;;;;;19.64;40.27;95529.91;5022002;28;20095;-60
2022/05/02 09:02:56;;;;;;;4.88;2.85;;;;;;;20.10;40.80;95527.50;5024153;28;20378;-61
2022/05/02 09:05:43;;;;;;;3.20;2.70;;;;;;;20.32;40.15;95523.59;5017853;28;20576;-61
2022/05/02 09:08:15;;;;;;;3.03;2.70;;;;;;;20.88;38.88;95520.59;5021580;28;20122;-61
2022/05/02 09:11:31;;;;;;;4.10;3.33;;;;;;;21.69;36.10;95517.56;5027411;28;20100;-60
2022/05/02 09:13:56;;;;;;;3.03;2.83;;;;;;;21.25;37.30;95517.34;5024478;28;20049;-61
2022/05/02 09:16:27;;;;;;;2.63;2.53;;;;;;;21.91;36.20;95514.53;5024986;28;20408;-60
2022/05/02 09:19:31;;;;;;;6.15;2.88;;;;;;;22.79;34.32;95515.38;5021416;28;20082;-61
2022/05/02 09:22:08;;;;;;;2.95;2.75;;;;;;;22.45;33.43;95509.53;5004734;28;20523;-61
2022/05/02 09:24:39;;;;;;;3.00;2.70;;;;;;;22.49;33.48;95509.91;5021088;28;20543;-61
2022/05/02 09:27:12;;;;;;;2.78;2.58;;;;;;;21.80;34.98;95502.66;5026023;28;20041;-60
2022/05/02 09:30:12;;;;;;;2.83;2.60;;;;;;;22.01;35.16;95501.44;5024730;28;20029;-61
2022/05/02 09:32:44;;;;;;;2.38;2.22;;;;;;;22.44;34.20;95497.97;5012761;28;20610;-61
2022/05/02 09:35:16;;;;;;;3.47;2.55;;;;;;;22.68;33.64;95497.34;5021730;28;20030;-61
2022/05/02 09:37:52;;;;;;;8.80;2.38;;;;;;;23.28;32.97;95488.59;5024389;28;20084;-61
2022/05/02 09:40:28;;;;;;;4.28;2.53;;;;;;;23.74;33.16;95491.63;5019741;28;20029;-61
2022/05/02 09:43:03;;;;;;;2.95;2.75;;;;;;;23.50;32.88;95487.25;5022440;28;20509;-60
2022/05/02 09:51:53;;;;;;;3.47;2.58;;;;;;;22.63;32.40;95481.91;5022393;28;20475;-61
2022/05/02 09:57:59;;;;;;;2.22;2.13;;;;;;;21.84;36.71;95480.53;5022903;28;20048;-60
2022/05/02 10:03:25;;;;;;;2.20;2.10;;;;;;;22.42;35.66;95480.44;5023905;28;20095;-60
2022/05/02 10:06:14;;;;;;;2.60;2.30;;;;;;;23.60;32.68;95476.78;5019523;28;20025;-61
2022/05/02 10:08:52;;;;;;;2.78;2.53;;;;;;;22.78;32.51;95476.16;5016366;28;20164;-61
2022/05/02 10:11:35;;;;;;;7.10;2.67;;;;;;;21.69;34.84;95478.19;5020770;28;20029;-61
2022/05/02 10:14:29;;;;;;;2.75;2.55;;;;;;;21.29;37.20;95475.72;5018899;28;20500;-60
2022/05/02 10:17:05;;;;;;;2.63;2.43;;;;;;;22.88;33.56;95465.75;5023726;28;20033;-61
2022/05/02 10:19:49;;;;;;;5.15;2.42;;;;;;;23.44;32.23;95462.94;5019321;28;20080;-61
2022/05/02 10:22:29;;;;;;;2.30;2.20;;;;;;;23.60;31.08;95463.34;5025101;28;20029;-61
2022/05/02 10:25:11;;;;;;;2.40;2.20;;;;;;;23.37;31.31;95456.88;5020712;28;20030;-61
2022/05/02 10:27:58;;;;;;;3.13;2.42;;;;;;;24.05;30.80;95459.34;5021856;28;20056;-61
2022/05/02 10:30:29;;;;;;;2.60;2.25;;;;;;;23.89;31.55;95452.75;5017332;28;20539;-61
2022/05/02 10:32:58;;;;;;;2.95;2.30;;;;;;;23.26;31.64;95454.94;5020262;28;20036;-61
2022/05/02 10:35:26;;;;;;;2.15;2.00;;;;;;;22.80;33.35;95462.53;5020599;28;20484;-60
2022/05/02 10:37:56;;;;;;;4.63;2.60;;;;;;;24.97;28.23;95446.25;5023161;28;20048;-61
2022/05/02 10:40:38;;;;;;;2.55;2.20;;;;;;;22.77;33.17;95446.88;5016987;28;20045;-61
2022/05/02 10:43:09;;;;;;;6.13;2.50;;;;;;;22.33;34.64;95448.56;5019464;28;20029;-61
2022/05/02 10:45:40;;;;;;;2.42;2.22;;;;;;;23.81;29.95;95445.03;5023643;28;20030;-61
2022/05/02 10:48:22;;;;;;;2.83;2.00;;;;;;;23.38;31.69;95444.25;5019230;28;20167;-60
2022/05/02 10:51:18;;;;;;;5.35;2.25;;;;;;;23.53;30.29;95443.81;5017777;28;20435;-60
2022/05/02 10:54:00;;;;;;;2.20;2.10;;;;;;;23.69;29.60;95439.66;5021179;28;20029;-60
2022/05/02 10:56:41;;;;;;;2.55;2.22;;;;;;;23.99;29.39;95442.25;5025267;28;20124;-60
2022/05/02 10:59:10;;;;;;;2.70;2.33;;;;;;;23.89;30.07;95433.94;5021674;28;20034;-59
2022/05/02 11:02:22;;;;;;;5.85;2.50;;;;;;;23.72;29.80;95426.56;5024029;28;20045;-60
2022/05/02 11:04:56;;;;;;;1.90;1.80;;;;;;;24.20;30.07;95425.78;5018481;28;20037;-60
2022/05/02 11:07:30;;;;;;;2.72;2.20;;;;;;;24.49;29.92;95417.78;5024561;28;20548;-60
2022/05/02 11:09:55;;;;;;;2.17;1.92;;;;;;;24.09;28.62;95419.38;5026843;28;20021;-60
2022/05/02 11:12:31;;;;;;;2.50;2.30;;;;;;;23.86;29.49;95415.59;5014380;28;20026;-60
2022/05/02 11:15:07;;;;;;;2.42;1.98;;;;;;;23.98;30.62;95413.72;5024745;28;20307;-60
2022/05/02 11:17:55;;;;;;;5.72;1.90;;;;;;;24.21;30.13;95412.13;5018177;28;20034;-60
2022/05/02 11:20:45;;;;;;;2.35;2.15;;;;;;;23.77;30.17;95406.25;5017752;28;20460;-60
2022/05/02 11:23:19;;;;;;;2.75;2.20;;;;;;;24.03;31.23;95404.97;5020370;28;20025;-60
2022/05/02 11:26:27;;;;;;;3.10;2.22;;;;;;;24.22;28.62;95407.56;5022346;28;20563;-60
2022/05/02 11:29:07;;;;;;;3.22;2.63;;;;;;;24.86;28.54;95401.34;5024706;28;20034;-61
2022/05/02 11:31:38;;;;;;;2.60;2.30;;;;;;;25.36;28.62;95399.84;5024560;28;20029;-61
2022/05/02 11:34:09;;;;;;;4.13;2.00;;;;;;;25.63;28.47;95393.84;5019475;28;20029;-61
2022/05/02 11:36:43;;;;;;;3.50;2.17;;;;;;;26.23;27.74;95386.13;5020792;28;20527;-60
2022/05/02 11:39:12;;;;;;;5.20;2.10;;;;;;;26.51;26.56;95387.03;5021868;28;20032;-60
2022/05/02 11:41:43;;;;;;;4.47;2.13;;;;;;;26.51;26.00;95383.50;5021122;28;20029;-60
2022/05/02 11:44:11;;;;;;;4.22;2.10;;;;;;;26.27;26.78;95381.88;5024684;28;20449;-60
2022/05/02 11:46:55;;;;;;;3.47;2.20;;;;;;;26.36;26.00;95382.25;5024885;28;20068;-60
2022/05/02 11:49:29;;;;;;;2.47;2.30;;;;;;;25.29;28.36;95391.09;5016904;28;20040;-60
2022/05/02 11:51:58;;;;;;;;;;;;;;;25.21;28.54;95386.09;5026968;28;20029;-59
2022/05/02 11:54:26;;;;;;;2.10;1.90;;;;;;;25.67;28.72;95378.81;5025602;28;20848;-60
2022/05/02 11:57:17;;;;;;;2.13;1.95;;;;;;;25.92;27.36;95385.66;5023601;28;20026;-60
2022/05/02 12:00:05;;;;;;;2.33;2.10;;;;;;;25.66;26.99;95384.47;5022097;28;20470;-60
2022/05/02 12:02:36;;;;;;;1.80;1.70;;;;;;;25.78;27.94;95368.19;5016277;28;20026;-60
2022/05/02 12:05:31;;;;;;;1.90;1.80;;;;;;;26.09;27.02;95374.03;5023642;28;20026;-60
2022/05/02 12:08:02;;;;;;;3.53;1.58;;;;;;;25.84;27.70;95369.91;5023175;28;20416;-60
2022/05/02 12:10:38;;;;;;;3.72;1.90;;;;;;;25.98;25.79;95370.38;5024562;28;20040;-60
2022/05/02 12:13:05;;;;;;;2.28;1.90;;;;;;;25.84;26.70;95368.00;5016948;28;20512;-60
2022/05/02 12:15:31;;;;;;;2.10;2.00;;;;;;;25.85;26.96;95363.44;5025104;28;20041;-60
2022/05/02 12:18:03;;;;;;;2.08;1.70;;;;;;;25.86;26.60;95363.22;5029812;28;20116;-60
2022/05/02 12:20:40;;;;;;;3.08;1.98;;;;;;;27.00;25.72;95356.56;5021322;28;20061;-60
2022/05/02 12:23:07;;;;;;;2.25;2.08;;;;;;;27.06;24.86;95360.13;5019926;28;20030;-60
2022/05/02 12:25:34;;;;;;;1.73;1.63;;;;;;;26.25;27.06;95364.28;5022453;28;20030;-60
2022/05/02 12:28:03;;;;;;;2.15;1.75;;;;;;;25.27;27.78;95368.97;5030971;28;20025;-60
2022/05/02 12:30:30;;;;;;;2.75;2.10;;;;;;;26.42;26.26;95361.56;5024361;28;20029;-59
2022/05/02 12:33:01;;;;;;;2.90;1.90;;;;;;;26.45;25.50;95361.06;5024430;28;20037;-60
2022/05/02 12:35:34;;;;;;;1.60;1.48;;;;;;;25.96;25.50;95351.72;5024356;28;20045;-60